createdAt,value
2023-04-03T00:01:01.582Z,99.90
2023-04-03T00:03:28.496Z,99.90
2023-04-03T00:05:55.711Z,99.90
2023-04-03T00:08:22.817Z,99.90
2023-04-03T00:10:50.259Z,99.90
2023-04-03T00:13:17.354Z,99.90
2023-04-03T00:15:44.775Z,99.90
2023-04-03T00:18:11.895Z,99.90
2023-04-03T00:20:38.988Z,99.90
2023-04-03T00:23:06.348Z,99.90
2023-04-03T00:25:33.309Z,99.90
2023-04-03T00:28:00.324Z,99.90
2023-04-03T00:30:27.221Z,99.90
2023-04-03T00:32:54.262Z,99.90
2023-04-03T00:35:22.248Z,99.90
2023-04-03T00:37:49.471Z,99.90
2023-04-03T00:40:17.271Z,99.90
2023-04-03T00:42:45.715Z,99.90
2023-04-03T00:45:12.439Z,99.90
2023-04-03T00:47:41.909Z,99.90
2023-04-03T00:50:09.269Z,99.90
2023-04-03T00:52:36.178Z,99.90
2023-04-03T00:55:06.802Z,99.90
2023-04-03T00:57:34.375Z,99.90
2023-04-03T01:00:07.061Z,99.90
2023-04-03T01:02:33.882Z,99.90
2023-04-03T01:05:00.965Z,99.90
2023-04-03T01:07:31.332Z,99.90
2023-04-03T01:10:01.145Z,99.90
2023-04-03T01:12:31.523Z,99.90
2023-04-03T01:15:01.460Z,99.90
2023-04-03T01:17:41.178Z,99.90
2023-04-03T01:20:29.340Z,99.90
2023-04-03T01:23:05.059Z,99.90
2023-04-03T01:25:31.786Z,99.90
2023-04-03T01:27:58.493Z,99.90
2023-04-03T01:30:31.934Z,99.90
2023-04-03T01:32:58.721Z,99.90
2023-04-03T01:35:28.530Z,99.90
2023-04-03T01:37:55.422Z,99.90
2023-04-03T01:40:22.274Z,99.90
2023-04-03T01:42:49.000Z,99.90
2023-04-03T01:45:15.910Z,99.90
2023-04-03T01:47:42.772Z,99.90
2023-04-03T01:50:10.192Z,99.90
2023-04-03T01:52:36.899Z,99.90
2023-04-03T01:55:03.784Z,99.90
2023-04-03T01:57:30.804Z,99.90
2023-04-03T01:59:57.560Z,99.90
2023-04-03T02:02:27.050Z,99.90
2023-04-03T02:04:53.798Z,99.90
2023-04-03T02:07:20.711Z,99.90
2023-04-03T02:09:47.453Z,99.90
2023-04-03T02:12:14.278Z,99.90
2023-04-03T02:14:41.219Z,99.90
2023-04-03T02:17:09.682Z,99.90
2023-04-03T02:19:36.817Z,99.90
2023-04-03T02:22:05.025Z,99.90
2023-04-03T02:24:32.314Z,99.90
2023-04-03T02:26:59.327Z,99.90
2023-04-03T02:29:26.161Z,99.90
2023-04-03T02:31:53.015Z,99.90
2023-04-03T02:34:19.847Z,99.90
2023-04-03T02:36:46.848Z,99.90
2023-04-03T02:39:13.604Z,99.90
2023-04-03T02:41:43.557Z,99.90
2023-04-03T02:44:11.759Z,99.90
2023-04-03T02:46:38.638Z,99.90
2023-04-03T02:49:05.842Z,99.90
2023-04-03T02:51:32.901Z,99.90
2023-04-03T02:53:59.664Z,99.90
2023-04-03T02:56:27.802Z,99.90
2023-04-03T02:58:54.672Z,99.90
2023-04-03T03:01:21.940Z,99.90
2023-04-03T03:03:48.730Z,99.90
2023-04-03T03:06:17.587Z,99.90
2023-04-03T03:08:44.905Z,99.90
2023-04-03T03:11:12.191Z,99.90
2023-04-03T03:13:39.198Z,99.90
2023-04-03T03:16:07.037Z,99.90
2023-04-03T03:21:03.363Z,99.90
2023-04-03T03:23:33.142Z,99.90
2023-04-03T03:26:06.386Z,99.90
2023-04-03T03:28:33.851Z,99.90
2023-04-03T03:31:01.733Z,99.90
2023-04-03T03:33:28.762Z,99.90
2023-04-03T03:35:56.359Z,99.90
2023-04-03T03:38:23.653Z,99.90
2023-04-03T03:40:52.244Z,99.90
2023-04-03T03:43:19.606Z,99.90
2023-04-03T03:45:50.456Z,99.90
2023-04-03T03:48:17.188Z,99.90
2023-04-03T03:50:43.989Z,99.90
2023-04-03T03:53:10.688Z,99.90
2023-04-03T03:55:37.611Z,99.90
2023-04-03T03:58:04.764Z,99.90
2023-04-03T04:00:31.552Z,99.90
2023-04-03T04:02:59.520Z,99.90
2023-04-03T04:05:26.409Z,99.90
2023-04-03T04:07:53.126Z,99.90
2023-04-03T04:10:19.857Z,99.90
2023-04-03T04:12:46.818Z,99.90
2023-04-03T04:15:13.562Z,99.90
2023-04-03T04:17:40.495Z,99.90
2023-04-03T04:20:07.680Z,99.90
2023-04-03T04:22:34.424Z,99.90
2023-04-03T04:25:01.089Z,99.90
2023-04-03T04:27:27.813Z,99.90
2023-04-03T04:29:54.586Z,99.90
2023-04-03T04:32:21.441Z,99.90
2023-04-03T04:34:48.243Z,99.90
2023-04-03T04:37:14.970Z,99.90
2023-04-03T04:39:41.786Z,99.90
2023-04-03T04:42:15.025Z,99.90
2023-04-03T04:44:43.613Z,99.90
2023-04-03T04:47:10.374Z,99.90
2023-04-03T04:49:37.123Z,99.90
2023-04-03T04:52:03.907Z,99.90
2023-04-03T04:54:30.790Z,99.90
2023-04-03T04:56:57.597Z,99.90
2023-04-03T04:59:24.428Z,99.90
2023-04-03T05:01:51.244Z,99.90
2023-04-03T05:04:18.406Z,99.90
2023-04-03T05:06:45.290Z,99.90
2023-04-03T05:09:12.246Z,99.90
2023-04-03T05:11:39.141Z,99.90
2023-04-03T05:14:07.594Z,99.90
2023-04-03T05:16:34.891Z,99.90
2023-04-03T05:19:01.801Z,99.90
2023-04-03T05:21:32.996Z,99.90
2023-04-03T05:24:04.031Z,99.90
2023-04-03T05:26:32.246Z,99.90
2023-04-03T05:28:59.051Z,99.90
2023-04-03T05:31:25.900Z,99.90
2023-04-03T05:33:52.934Z,99.90
2023-04-03T05:36:20.122Z,99.90
2023-04-03T05:38:47.783Z,99.90
2023-04-03T05:41:15.831Z,99.90
2023-04-03T05:43:42.809Z,99.90
2023-04-03T05:46:21.613Z,99.90
2023-04-03T05:48:48.847Z,99.90
2023-04-03T05:51:18.652Z,99.90
2023-04-03T05:53:47.616Z,99.90
2023-04-03T05:56:14.686Z,99.90
2023-04-03T05:58:41.451Z,99.90
2023-04-03T06:01:08.852Z,99.90
2023-04-03T06:03:37.755Z,99.90
2023-04-03T06:06:05.982Z,99.90
2023-04-03T06:08:32.923Z,99.90
2023-04-03T06:10:59.755Z,99.90
2023-04-03T06:13:26.517Z,99.90
2023-04-03T06:15:53.346Z,99.90
2023-04-03T06:18:20.474Z,99.90
2023-04-03T06:20:47.426Z,99.90
2023-04-03T06:23:15.426Z,99.90
2023-04-03T06:25:43.054Z,99.90
2023-04-03T06:28:11.131Z,99.90
2023-04-03T06:30:38.722Z,99.90
2023-04-03T06:33:05.889Z,99.90
2023-04-03T06:35:32.742Z,99.90
2023-04-03T06:37:59.572Z,99.90
2023-04-03T06:40:27.594Z,99.90
2023-04-03T06:42:54.435Z,99.90
2023-04-03T06:45:22.655Z,99.90
2023-04-03T06:47:49.462Z,99.90
2023-04-03T06:50:16.295Z,99.90
2023-04-03T06:52:43.570Z,99.90
2023-04-03T06:55:10.756Z,99.90
2023-04-03T06:57:37.875Z,99.90
2023-04-03T07:00:06.975Z,99.90
2023-04-03T07:02:34.177Z,99.90
2023-04-03T07:05:01.046Z,99.90
2023-04-03T07:07:27.871Z,99.90
2023-04-03T07:09:54.693Z,99.90
2023-04-03T07:12:21.750Z,99.90
2023-04-03T07:14:48.565Z,99.90
2023-04-03T07:17:15.476Z,99.90
2023-04-03T07:19:42.221Z,99.90
2023-04-03T07:22:09.247Z,99.90
2023-04-03T07:24:36.088Z,99.90
2023-04-03T07:27:03.648Z,99.90
2023-04-03T07:29:31.116Z,99.90
2023-04-03T07:32:01.000Z,99.90
2023-04-03T07:34:27.946Z,99.90
2023-04-03T07:36:54.804Z,99.90
2023-04-03T07:39:21.658Z,99.90
2023-04-03T07:41:48.480Z,99.90
2023-04-03T07:44:15.510Z,99.90
2023-04-03T07:46:43.372Z,99.90
2023-04-03T07:49:10.324Z,99.90
2023-04-03T07:51:37.312Z,99.90
2023-04-03T07:54:05.013Z,99.90
2023-04-03T07:56:32.810Z,99.90
2023-04-03T07:58:59.700Z,99.90
2023-04-03T08:01:26.460Z,99.90
2023-04-03T08:03:53.256Z,99.90
2023-04-03T08:06:29.432Z,99.90
2023-04-03T08:09:05.136Z,99.90
2023-04-03T08:11:32.580Z,99.90
2023-04-03T08:13:59.336Z,99.90
2023-04-03T08:16:29.223Z,99.90
2023-04-03T08:18:56.529Z,99.90
2023-04-03T08:21:23.350Z,99.90
2023-04-03T08:23:51.783Z,99.90
2023-04-03T08:26:21.773Z,99.40
2023-04-03T08:28:49.570Z,99.90
2023-04-03T08:31:20.862Z,99.90
2023-04-03T08:33:48.241Z,99.90
2023-04-03T08:36:26.290Z,99.90
2023-04-03T08:38:54.301Z,99.90
2023-04-03T08:41:31.858Z,98.70
2023-04-03T08:44:17.339Z,98.40
2023-04-03T08:47:05.872Z,99.70
2023-04-03T08:49:54.799Z,99.80
2023-04-03T08:52:36.847Z,97.40
2023-04-03T08:55:35.516Z,97.00
2023-04-03T08:58:17.809Z,96.50
2023-04-03T09:01:26.262Z,96.60
2023-04-03T09:03:53.249Z,96.10
2023-04-03T09:06:22.761Z,96.60
2023-04-03T09:08:59.817Z,96.50
2023-04-03T09:11:49.179Z,95.20
2023-04-03T09:14:38.540Z,94.60
2023-04-03T09:17:30.723Z,93.00
2023-04-03T09:20:20.842Z,95.70
2023-04-03T09:22:52.191Z,94.70
2023-04-03T09:25:32.077Z,94.00
2023-04-03T09:28:00.526Z,93.20
2023-04-03T09:30:28.518Z,92.80
2023-04-03T09:32:57.991Z,90.70
2023-04-03T09:35:47.361Z,90.60
2023-04-03T09:38:19.521Z,87.60
2023-04-03T09:40:48.719Z,88.60
2023-04-03T09:43:18.704Z,89.30
2023-04-03T09:45:47.229Z,86.90
2023-04-03T09:48:16.265Z,86.80
2023-04-03T09:50:56.389Z,88.80
2023-04-03T09:53:36.898Z,88.60
2023-04-03T09:56:19.060Z,89.50
2023-04-03T09:58:51.066Z,87.30
2023-04-03T10:01:33.621Z,88.20
2023-04-03T10:04:06.205Z,87.40
2023-04-03T10:06:41.603Z,87.30
2023-04-03T10:09:27.887Z,85.60
2023-04-03T10:12:02.182Z,84.90
2023-04-03T10:14:31.009Z,87.70
2023-04-03T10:17:10.347Z,88.20
2023-04-03T10:19:46.197Z,88.60
2023-04-03T10:22:40.582Z,89.80
2023-04-03T10:25:21.722Z,89.20
2023-04-03T10:28:06.505Z,88.30
2023-04-03T10:30:51.292Z,89.10
2023-04-03T10:33:23.447Z,89.70
2023-04-03T10:36:23.180Z,86.90
2023-04-03T10:39:11.964Z,87.20
2023-04-03T10:41:55.928Z,87.40
2023-04-03T10:44:59.490Z,89.00
2023-04-03T10:47:49.446Z,89.70
2023-04-03T10:50:28.316Z,89.70
2023-04-03T10:52:58.855Z,88.80
2023-04-03T10:55:44.487Z,89.50
2023-04-03T10:58:22.903Z,90.00
2023-04-03T11:00:53.797Z,91.50
2023-04-03T11:03:42.225Z,92.30
2023-04-03T11:06:12.323Z,90.80
2023-04-03T11:08:57.986Z,92.20
2023-04-03T11:11:36.257Z,92.40
2023-04-03T11:14:25.786Z,92.50
2023-04-03T11:17:18.909Z,92.20
2023-04-03T11:20:04.526Z,90.60
2023-04-03T11:22:39.540Z,90.00
2023-04-03T11:25:12.709Z,89.30
2023-04-03T11:27:48.294Z,90.10
2023-04-03T11:30:24.563Z,90.00
2023-04-03T11:33:32.726Z,90.10
2023-04-03T11:36:24.942Z,91.70
2023-04-03T11:38:57.527Z,90.90
2023-04-03T11:41:31.221Z,91.00
2023-04-03T11:44:31.337Z,90.80
2023-04-03T11:47:00.543Z,89.60
2023-04-03T11:50:02.786Z,90.80
2023-04-03T11:52:44.325Z,91.60
2023-04-03T11:55:21.226Z,91.50
2023-04-03T11:57:47.998Z,91.10
2023-04-03T12:00:52.348Z,91.90
2023-04-03T12:03:28.138Z,91.20
2023-04-03T12:06:18.177Z,90.70
2023-04-03T12:08:51.581Z,89.30
2023-04-03T12:11:25.071Z,91.30
2023-04-03T12:13:58.761Z,91.80
2023-04-03T12:16:28.334Z,91.90
2023-04-03T12:19:14.910Z,91.90
2023-04-03T12:21:47.788Z,92.10
2023-04-03T12:24:17.570Z,90.60
2023-04-03T12:27:06.048Z,90.40
2023-04-03T12:29:37.472Z,89.90
2023-04-03T12:32:23.678Z,89.70
2023-04-03T12:35:28.546Z,89.10
2023-04-03T12:38:34.549Z,91.40
2023-04-03T12:41:40.749Z,91.40
2023-04-03T12:44:13.437Z,91.60
2023-04-03T12:47:01.856Z,90.50
2023-04-03T12:49:44.056Z,90.50
2023-04-03T12:52:42.486Z,92.70
2023-04-03T12:55:19.553Z,92.20
2023-04-03T12:57:47.130Z,93.00
2023-04-03T13:00:34.208Z,91.80
2023-04-03T13:03:04.684Z,91.30
2023-04-03T13:05:36.767Z,92.20
2023-04-03T13:08:13.686Z,93.10
2023-04-03T13:10:58.715Z,92.30
2023-04-03T13:13:27.301Z,90.40
2023-04-03T13:15:55.937Z,90.00
2023-04-03T13:18:37.809Z,92.40
2023-04-03T13:21:14.588Z,91.60
2023-04-03T13:23:46.306Z,91.80
2023-04-03T13:26:13.637Z,91.80
2023-04-03T13:28:41.772Z,92.60
2023-04-03T13:31:17.991Z,93.30
2023-04-03T13:34:14.349Z,93.00
2023-04-03T13:36:46.120Z,93.40
2023-04-03T13:39:15.713Z,92.90
2023-04-03T13:41:45.402Z,93.00
2023-04-03T13:44:40.578Z,94.10
2023-04-03T13:47:19.076Z,93.10
2023-04-03T13:49:59.957Z,92.30
2023-04-03T13:52:40.922Z,92.20
2023-04-03T13:55:32.785Z,92.50
2023-04-03T13:58:01.060Z,93.10
2023-04-03T14:00:40.294Z,93.40
2023-04-03T14:03:24.946Z,94.20
2023-04-03T14:05:51.996Z,93.40
2023-04-03T14:08:24.324Z,93.70
2023-04-03T14:10:59.567Z,93.90
2023-04-03T14:13:31.950Z,93.40
2023-04-03T14:16:05.826Z,93.60
2023-04-03T14:18:40.111Z,93.60
2023-04-03T14:21:06.957Z,94.70
2023-04-03T14:23:34.054Z,95.30
2023-04-03T14:26:01.470Z,94.70
2023-04-03T14:28:28.300Z,95.00
2023-04-03T14:30:55.269Z,94.70
2023-04-03T14:33:23.210Z,95.00
2023-04-03T14:35:51.137Z,94.80
2023-04-03T14:38:29.476Z,94.70
2023-04-03T14:41:00.947Z,94.50
2023-04-03T14:43:33.750Z,94.90
2023-04-03T14:46:00.797Z,95.20
2023-04-03T14:48:29.550Z,94.90
2023-04-03T14:51:05.752Z,93.90
2023-04-03T14:53:38.959Z,94.90
2023-04-03T14:56:13.514Z,95.90
2023-04-03T14:58:40.364Z,94.80
2023-04-03T15:01:09.780Z,95.40
2023-04-03T15:03:39.200Z,95.00
2023-04-03T15:06:06.560Z,95.10
2023-04-03T15:08:33.327Z,95.20
2023-04-03T15:11:00.303Z,95.40
2023-04-03T15:13:27.241Z,95.60
2023-04-03T15:15:54.292Z,95.40
2023-04-03T15:18:29.112Z,94.70
2023-04-03T15:20:57.776Z,95.40
2023-04-03T15:23:26.936Z,95.00
2023-04-03T15:25:54.598Z,95.50
2023-04-03T15:28:27.105Z,95.80
2023-04-03T15:30:54.101Z,95.80
2023-04-03T15:33:22.754Z,94.90
2023-04-03T15:35:49.584Z,94.80
2023-04-03T15:38:16.278Z,95.90
2023-04-03T15:40:44.577Z,94.90
2023-04-03T15:43:15.191Z,95.10
2023-04-03T15:45:43.682Z,95.10
2023-04-03T15:48:13.406Z,94.90
2023-04-03T15:50:40.932Z,95.50
2023-04-03T15:53:08.076Z,96.10
2023-04-03T15:55:37.110Z,95.40
2023-04-03T15:58:05.342Z,95.40
2023-04-03T16:00:33.654Z,95.20
2023-04-03T16:03:11.047Z,95.10
2023-04-03T16:05:39.734Z,94.80
2023-04-03T16:08:08.635Z,95.10
2023-04-03T16:10:41.459Z,96.00
2023-04-03T16:13:08.254Z,96.40
2023-04-03T16:15:36.546Z,96.30
2023-04-03T16:18:04.608Z,95.90
2023-04-03T16:20:33.061Z,96.10
2023-04-03T16:23:01.953Z,96.20
2023-04-03T16:25:28.886Z,96.30
2023-04-03T16:27:58.314Z,96.60
2023-04-03T16:30:25.213Z,97.10
2023-04-03T16:32:56.571Z,97.70
2023-04-03T16:35:23.740Z,97.70
2023-04-03T16:37:50.454Z,97.80
2023-04-03T16:40:17.566Z,97.90
2023-04-03T16:42:45.705Z,97.70
2023-04-03T16:45:12.480Z,97.80
2023-04-03T16:47:41.675Z,98.40
2023-04-03T16:50:08.904Z,98.70
2023-04-03T16:52:36.013Z,98.70
2023-04-03T16:55:02.850Z,98.80
2023-04-03T16:57:29.637Z,98.70
2023-04-03T16:59:59.476Z,99.10
2023-04-03T17:02:28.761Z,99.40
2023-04-03T17:04:56.028Z,99.10
2023-04-03T17:07:24.583Z,99.50
2023-04-03T17:09:52.549Z,99.50
2023-04-03T17:12:19.952Z,99.30
2023-04-03T17:14:47.862Z,99.60
2023-04-03T17:17:26.994Z,99.90
2023-04-03T17:19:55.749Z,99.90
2023-04-03T17:22:22.796Z,99.90
2023-04-03T17:24:49.748Z,99.90
2023-04-03T17:27:16.604Z,99.90
2023-04-03T17:29:43.485Z,99.90
2023-04-03T17:32:13.198Z,99.90
2023-04-03T17:34:40.171Z,99.90
2023-04-03T17:37:07.118Z,99.90
2023-04-03T17:39:33.914Z,99.90
2023-04-03T17:42:01.462Z,99.90
2023-04-03T17:44:28.328Z,99.90
2023-04-03T17:46:55.513Z,99.90
2023-04-03T17:49:22.517Z,99.90
2023-04-03T17:51:49.500Z,99.90
2023-04-03T17:54:16.992Z,99.90
2023-04-03T17:56:48.167Z,99.90
2023-04-03T17:59:16.640Z,99.90
2023-04-03T18:01:49.041Z,99.90
2023-04-03T18:04:18.772Z,99.90
2023-04-03T18:06:53.666Z,99.90
2023-04-03T18:09:25.302Z,99.90
2023-04-03T18:11:53.206Z,99.90
2023-04-03T18:14:23.826Z,99.90
2023-04-03T18:16:50.961Z,99.90
2023-04-03T18:19:23.526Z,99.90
2023-04-03T18:21:53.530Z,99.90
2023-04-03T18:24:21.847Z,99.90
2023-04-03T18:26:53.997Z,99.90
2023-04-03T18:29:21.457Z,99.90
2023-04-03T18:31:55.108Z,99.90
2023-04-03T18:34:24.231Z,99.90
2023-04-03T18:36:52.457Z,99.90
2023-04-03T18:39:19.506Z,99.90
2023-04-03T18:41:47.653Z,99.90
2023-04-03T18:44:18.344Z,99.90
2023-04-03T18:46:46.049Z,99.90
2023-04-03T18:49:15.011Z,99.90
2023-04-03T18:51:42.226Z,99.90
2023-04-03T18:54:10.023Z,99.90
2023-04-03T18:56:37.594Z,99.90
2023-04-03T18:59:05.323Z,99.90
2023-04-03T19:01:33.998Z,99.90
2023-04-03T19:04:01.178Z,99.90
2023-04-03T19:06:28.168Z,99.90
2023-04-03T19:08:54.971Z,99.90
2023-04-03T19:11:23.023Z,99.90
2023-04-03T19:16:20.001Z,99.90
2023-04-03T19:18:47.003Z,99.90
2023-04-03T19:21:14.866Z,99.90
2023-04-03T19:23:44.637Z,99.90
2023-04-03T19:26:13.472Z,99.90
2023-04-03T19:28:41.761Z,99.90
2023-04-03T19:31:17.231Z,99.90
2023-04-03T19:33:44.900Z,99.90
2023-04-03T19:36:12.389Z,99.90
2023-04-03T19:38:40.116Z,99.90
2023-04-03T19:41:17.368Z,99.90
2023-04-03T19:43:44.502Z,99.90
2023-04-03T19:46:11.708Z,99.90
2023-04-03T19:48:38.756Z,99.90
2023-04-03T19:51:06.130Z,99.90
2023-04-03T19:53:32.969Z,99.90
2023-04-03T19:56:00.884Z,99.90
2023-04-03T19:58:30.278Z,99.90
2023-04-03T20:00:58.255Z,99.90
2023-04-03T20:03:26.107Z,99.90
2023-04-03T20:05:54.056Z,99.90
2023-04-03T20:08:21.018Z,99.90
2023-04-03T20:10:47.900Z,99.90
2023-04-03T20:13:14.727Z,99.90
2023-04-03T20:15:42.869Z,99.90
2023-04-03T20:18:12.609Z,99.90
2023-04-03T20:20:42.161Z,99.90
2023-04-03T20:23:11.106Z,99.90
2023-04-03T20:25:57.670Z,99.90
2023-04-03T20:28:28.945Z,99.90
2023-04-03T20:30:56.769Z,99.90
2023-04-03T20:33:23.987Z,99.90
2023-04-03T20:35:50.702Z,99.90
2023-04-03T20:38:17.895Z,99.90
2023-04-03T20:40:45.040Z,99.90
2023-04-03T20:43:12.301Z,99.90
2023-04-03T20:45:41.589Z,99.90
2023-04-03T20:48:08.972Z,99.90
2023-04-03T20:50:36.051Z,99.90
2023-04-03T20:53:03.341Z,99.90
2023-04-03T20:55:30.312Z,99.90
2023-04-03T20:58:01.279Z,99.90
2023-04-03T21:00:31.738Z,99.90
2023-04-03T21:03:01.493Z,99.90
2023-04-03T21:05:30.381Z,99.90
2023-04-03T21:08:35.966Z,99.90
2023-04-03T21:11:40.528Z,99.90
2023-04-03T21:14:46.849Z,99.90
2023-04-03T21:17:13.752Z,99.90
2023-04-03T21:19:46.223Z,99.90
2023-04-03T21:22:13.976Z,99.90
2023-04-03T21:24:41.471Z,99.90
2023-04-03T21:27:08.500Z,99.90
2023-04-03T21:29:35.300Z,99.90
2023-04-03T21:32:02.206Z,99.90
2023-04-03T21:34:30.569Z,99.90
2023-04-03T21:37:01.632Z,99.90
2023-04-03T21:39:28.997Z,99.90
2023-04-03T21:41:55.951Z,99.90
2023-04-03T21:44:23.407Z,99.90
2023-04-03T21:46:54.530Z,99.90
2023-04-03T21:49:22.756Z,99.90
2023-04-03T21:51:51.533Z,99.90
2023-04-03T21:54:19.164Z,99.90
2023-04-03T21:56:48.042Z,99.90
2023-04-03T21:59:15.351Z,99.90
2023-04-03T22:01:42.424Z,99.90
2023-04-03T22:04:09.186Z,99.90
2023-04-03T22:06:37.631Z,99.90
2023-04-03T22:09:04.741Z,99.90
2023-04-03T22:11:31.479Z,99.90
2023-04-03T22:13:58.449Z,99.90
2023-04-03T22:16:26.590Z,99.90
2023-04-03T22:18:53.682Z,99.90
2023-04-03T22:21:22.213Z,99.90
2023-04-03T22:23:49.315Z,99.90
2023-04-03T22:28:45.830Z,99.90
2023-04-03T22:31:14.316Z,99.90
2023-04-03T22:33:42.512Z,99.90
2023-04-03T22:36:11.297Z,99.90
2023-04-03T22:38:39.373Z,99.90
2023-04-03T22:41:07.996Z,99.90
2023-04-03T22:43:36.474Z,99.90
2023-04-03T22:46:05.534Z,99.90
2023-04-03T22:48:33.425Z,99.90
2023-04-03T22:51:01.162Z,99.90
2023-04-03T22:53:28.768Z,99.90
2023-04-03T22:55:56.600Z,99.90
2023-04-03T22:58:26.389Z,99.90
2023-04-03T23:00:55.125Z,99.90
2023-04-03T23:03:25.503Z,99.90
2023-04-03T23:05:53.406Z,99.90
2023-04-03T23:08:20.234Z,99.90
2023-04-03T23:10:47.107Z,99.90
2023-04-03T23:13:13.912Z,99.90
2023-04-03T23:15:40.894Z,99.90
2023-04-03T23:18:07.920Z,99.90
2023-04-03T23:20:38.159Z,99.90
2023-04-03T23:23:05.812Z,99.90
2023-04-03T23:25:32.557Z,99.90
2023-04-03T23:27:59.264Z,99.90
2023-04-03T23:30:26.348Z,99.90
2023-04-03T23:32:53.133Z,99.90
2023-04-03T23:35:19.926Z,99.90
2023-04-03T23:37:46.610Z,99.90
2023-04-03T23:40:13.519Z,99.90
2023-04-03T23:42:40.215Z,99.90
2023-04-03T23:45:10.745Z,99.90
2023-04-03T23:47:37.726Z,99.90
2023-04-03T23:50:07.997Z,99.90
2023-04-03T23:52:34.661Z,99.90
2023-04-03T23:55:02.039Z,99.90
2023-04-03T23:57:28.779Z,99.90
2023-04-03T23:59:55.451Z,99.90
